Time;durP1;ratioP1;P1;durP2;ratioP2;P2;SDS_P1;SDS_P2;PMS_P1;PMS_P2;Temp;Humidity;BMP_temperature;BMP_pressure;BME280_temperature;BME280_humidity;BME280_pressure;Samples;Min_cycle;Max_cycle;Signal;HPM_P1;HPM_P2
2021/03/31 00:02:06;;;;;;;12.10;5.55;;;10.10;99.90;;;;;;5069752;28;22043;-51
2021/03/31 00:04:31;;;;;;;16.00;5.82;;;10.10;99.90;;;;;;5071264;28;20389;-54
2021/03/31 00:06:57;;;;;;;15.55;5.57;;;10.10;99.90;;;;;;5071618;28;20103;-51
2021/03/31 00:09:23;;;;;;;28.60;6.90;;;10.10;99.90;;;;;;5071504;28;20032;-51
2021/03/31 00:11:49;;;;;;;14.32;6.32;;;10.10;99.90;;;;;;5070851;28;20013;-53
2021/03/31 00:14:16;;;;;;;16.33;6.22;;;10.10;99.90;;;;;;5071502;28;20047;-51
2021/03/31 00:16:41;;;;;;;22.40;7.40;;;10.00;99.90;;;;;;5068035;28;20021;-52
2021/03/31 00:19:07;;;;;;;13.52;5.28;;;10.10;99.90;;;;;;5070164;28;20032;-51
2021/03/31 00:21:32;;;;;;;12.55;5.35;;;9.90;99.90;;;;;;5067016;28;20235;-51
2021/03/31 00:23:58;;;;;;;9.73;4.70;;;10.00;99.90;;;;;;5067818;28;20037;-51
2021/03/31 00:26:23;;;;;;;17.02;5.80;;;9.90;99.90;;;;;;5066472;28;20025;-53
2021/03/31 00:28:49;;;;;;;16.70;6.80;;;9.90;99.90;;;;;;5070368;28;20031;-52
2021/03/31 00:31:15;;;;;;;12.93;6.05;;;9.80;99.90;;;;;;5070574;28;20374;-57
2021/03/31 00:33:40;;;;;;;16.55;5.95;;;9.80;99.90;;;;;;5067757;28;20024;-53
2021/03/31 00:36:07;;;;;;;12.30;5.72;;;9.80;99.90;;;;;;5070548;28;20055;-51
2021/03/31 00:38:32;;;;;;;10.50;5.80;;;9.80;99.90;;;;;;5071037;28;20103;-50
2021/03/31 00:40:58;;;;;;;18.95;6.93;;;9.80;99.90;;;;;;5066468;28;20447;-51
2021/03/31 00:43:24;;;;;;;13.50;5.75;;;9.80;99.90;;;;;;5069205;28;20032;-51
2021/03/31 00:45:50;;;;;;;16.02;5.63;;;9.80;99.90;;;;;;5070078;28;20017;-53
2021/03/31 00:48:16;;;;;;;17.42;5.57;;;9.80;99.90;;;;;;5070673;28;20028;-51
2021/03/31 00:50:50;;;;;;;16.23;5.97;;;9.80;99.90;;;;;;5069929;28;20024;-51
2021/03/31 00:53:18;;;;;;;11.07;5.43;;;9.70;99.90;;;;;;5065154;28;20024;-50
2021/03/31 00:55:46;;;;;;;14.70;6.05;;;9.60;99.90;;;;;;5065409;28;20364;-54
2021/03/31 00:58:12;;;;;;;11.73;5.93;;;9.50;99.90;;;;;;5070896;28;20119;-54
2021/03/31 01:00:38;;;;;;;12.77;6.07;;;9.30;99.90;;;;;;5070307;28;20529;-55
2021/03/31 01:03:04;;;;;;;14.70;6.57;;;9.20;99.90;;;;;;5069666;28;20730;-50
2021/03/31 01:05:30;;;;;;;13.55;6.18;;;9.10;99.90;;;;;;5069768;28;20089;-51
2021/03/31 01:07:57;;;;;;;14.60;5.88;;;9.10;99.90;;;;;;5064402;28;20029;-50
2021/03/31 01:10:36;;;;;;;21.60;6.13;;;9.10;99.90;;;;;;5069528;28;20024;-50
2021/03/31 01:13:31;;;;;;;13.55;6.18;;;9.00;99.90;;;;;;5064097;28;20024;-50
2021/03/31 01:16:02;;;;;;;14.85;6.30;;;9.00;99.90;;;;;;5070032;28;20021;-50
2021/03/31 01:18:44;;;;;;;18.42;6.80;;;9.00;99.90;;;;;;5068577;28;20841;-51
2021/03/31 01:22:03;;;;;;;12.68;5.80;;;9.00;99.90;;;;;;5069306;28;20032;-49
2021/03/31 01:25:02;;;;;;;12.95;6.32;;;9.10;99.90;;;;;;5068869;28;20036;-49
2021/03/31 01:27:37;;;;;;;11.85;6.40;;;9.10;99.90;;;;;;5066957;28;20027;-50
2021/03/31 01:30:11;;;;;;;11.77;5.90;;;9.00;99.90;;;;;;5068063;28;20048;-50
2021/03/31 01:32:58;;;;;;;21.90;8.02;;;9.00;99.90;;;;;;5070052;28;21765;-50
2021/03/31 01:35:25;;;;;;;14.07;6.18;;;8.90;99.90;;;;;;5064585;28;20382;-49
2021/03/31 01:37:54;;;;;;;16.33;6.30;;;8.80;99.90;;;;;;5070228;28;20029;-56
2021/03/31 01:40:22;;;;;;;14.27;5.38;;;8.80;99.90;;;;;;5069172;28;20358;-52
2021/03/31 01:43:10;;;;;;;16.60;6.28;;;8.80;99.90;;;;;;5067760;28;20021;-53
2021/03/31 01:45:38;;;;;;;13.35;6.30;;;8.80;99.90;;;;;;5066957;28;20112;-50
2021/03/31 01:48:10;;;;;;;11.13;6.00;;;8.70;99.90;;;;;;5069815;28;20379;-52
2021/03/31 01:50:37;;;;;;;13.30;6.10;;;8.80;99.90;;;;;;5066938;28;20370;-51
2021/03/31 01:53:04;;;;;;;11.82;6.20;;;8.80;99.90;;;;;;5067069;28;20079;-54
2021/03/31 01:55:30;;;;;;;12.13;5.75;;;8.80;99.90;;;;;;5069021;28;20028;-50
2021/03/31 01:57:57;;;;;;;15.43;5.97;;;8.80;99.90;;;;;;5068280;28;20394;-52
2021/03/31 02:00:24;;;;;;;13.45;6.15;;;8.70;99.90;;;;;;5067745;28;20108;-51
2021/03/31 02:02:54;;;;;;;15.90;6.05;;;8.80;99.90;;;;;;5069821;28;20051;-53
2021/03/31 02:05:21;;;;;;;17.27;5.93;;;8.70;99.90;;;;;;5069977;28;20029;-55
2021/03/31 02:07:47;;;;;;;19.35;6.40;;;8.70;99.90;;;;;;5073987;28;20048;-53
2021/03/31 02:10:14;;;;;;;12.82;6.40;;;8.60;99.90;;;;;;5072964;28;20032;-53
2021/03/31 02:12:41;;;;;;;11.07;5.53;;;8.50;99.90;;;;;;5070684;28;20474;-52
2021/03/31 02:15:12;;;;;;;12.65;5.80;;;8.30;99.90;;;;;;5072396;28;20405;-54
2021/03/31 02:17:39;;;;;;;13.73;6.50;;;8.20;99.90;;;;;;5073148;28;20044;-52
2021/03/31 02:20:06;;;;;;;12.65;5.93;;;8.10;99.90;;;;;;5068272;28;20068;-51
2021/03/31 02:22:35;;;;;;;14.13;5.80;;;8.10;99.90;;;;;;5071355;28;20036;-51
2021/03/31 02:25:03;;;;;;;12.70;6.68;;;8.00;99.90;;;;;;5073719;28;20035;-53
2021/03/31 02:27:28;;;;;;;13.52;6.15;;;8.00;99.90;;;;;;5067929;28;20024;-50
2021/03/31 02:29:54;;;;;;;16.48;6.93;;;8.00;99.90;;;;;;5072224;28;20960;-53
2021/03/31 02:32:23;;;;;;;16.65;6.07;;;8.00;99.90;;;;;;5067621;28;20021;-53
2021/03/31 02:34:52;;;;;;;11.07;5.78;;;8.00;99.90;;;;;;5069433;28;20498;-52
2021/03/31 02:37:19;;;;;;;12.45;5.45;;;7.90;99.90;;;;;;5067516;28;20043;-61
2021/03/31 02:39:47;;;;;;;14.77;6.82;;;7.90;99.90;;;;;;5073227;28;20510;-50
2021/03/31 02:42:16;;;;;;;15.57;6.22;;;7.90;99.90;;;;;;5067020;28;20442;-50
2021/03/31 02:44:45;;;;;;;21.40;6.97;;;7.90;99.90;;;;;;5066243;28;20080;-51
2021/03/31 02:47:14;;;;;;;16.40;5.97;;;7.90;99.90;;;;;;5071884;28;20027;-50
2021/03/31 02:49:42;;;;;;;20.95;6.13;;;7.80;99.90;;;;;;5072978;28;20498;-52
2021/03/31 02:52:08;;;;;;;22.05;7.05;;;7.90;99.90;;;;;;5069875;28;20047;-50
2021/03/31 02:54:34;;;;;;;18.77;7.25;;;7.80;99.90;;;;;;5072781;28;20139;-50
2021/03/31 02:57:00;;;;;;;13.73;6.78;;;7.80;99.90;;;;;;5072955;28;20108;-50
2021/03/31 02:59:26;;;;;;;11.63;6.60;;;7.70;99.90;;;;;;5070241;28;20111;-51
2021/03/31 03:01:53;;;;;;;18.10;6.18;;;7.70;99.90;;;;;;5068233;28;20032;-50
2021/03/31 03:04:20;;;;;;;11.77;5.20;;;7.60;99.90;;;;;;5066111;28;20098;-51
2021/03/31 03:06:46;;;;;;;16.00;6.50;;;7.60;99.90;;;;;;5072602;28;20472;-51
2021/03/31 03:09:12;;;;;;;16.70;6.03;;;7.60;99.90;;;;;;5070927;28;20024;-55
2021/03/31 03:11:39;;;;;;;13.43;6.00;;;7.70;99.90;;;;;;5070647;28;20090;-52
2021/03/31 03:14:07;;;;;;;16.30;5.85;;;7.70;99.90;;;;;;5072699;28;20025;-50
2021/03/31 03:16:33;;;;;;;16.92;6.30;;;7.80;99.90;;;;;;5071891;28;20403;-53
2021/03/31 03:18:59;;;;;;;18.60;6.03;;;7.90;99.90;;;;;;5071967;28;20040;-51
2021/03/31 03:21:27;;;;;;;13.40;5.82;;;7.90;99.90;;;;;;5072376;28;20044;-53
2021/03/31 03:23:57;;;;;;;17.92;6.70;;;7.90;99.90;;;;;;5071892;28;20032;-50
2021/03/31 03:26:24;;;;;;;19.73;6.70;;;8.00;99.90;;;;;;5072641;28;20032;-50
2021/03/31 03:28:50;;;;;;;14.68;6.50;;;7.90;99.90;;;;;;5070924;28;20074;-52
2021/03/31 03:31:16;;;;;;;14.00;6.35;;;7.90;99.90;;;;;;5071907;28;20024;-50
2021/03/31 03:33:43;;;;;;;13.57;5.65;;;7.80;99.90;;;;;;5071040;28;20021;-50
2021/03/31 03:36:12;;;;;;;14.93;6.22;;;7.60;99.90;;;;;;5071755;28;20375;-50
2021/03/31 03:38:39;;;;;;;14.00;6.10;;;7.50;99.90;;;;;;5070182;28;20036;-50
2021/03/31 03:41:09;;;;;;;13.65;6.05;;;7.30;99.90;;;;;;5064052;28;20021;-50
2021/03/31 03:43:38;;;;;;;14.82;6.13;;;7.20;99.90;;;;;;5072409;28;20075;-53
2021/03/31 03:46:06;;;;;;;15.75;6.88;;;7.20;99.90;;;;;;5069492;28;20021;-53
2021/03/31 03:48:31;;;;;;;14.90;5.75;;;7.20;99.90;;;;;;5069957;28;20051;-52
2021/03/31 03:50:57;;;;;;;12.05;6.10;;;7.30;99.90;;;;;;5067663;28;20428;-50
2021/03/31 03:53:28;;;;;;;14.73;6.80;;;7.30;99.90;;;;;;5071813;28;20036;-52
2021/03/31 03:55:55;;;;;;;16.17;5.93;;;7.30;99.90;;;;;;5071850;28;20029;-51
2021/03/31 03:58:21;;;;;;;13.18;5.88;;;7.30;99.90;;;;;;5071537;28;20478;-52
2021/03/31 04:00:46;;;;;;;13.30;6.05;;;7.40;99.90;;;;;;5067688;28;20033;-54
2021/03/31 04:03:12;;;;;;;15.48;5.60;;;7.30;99.90;;;;;;5068545;28;20094;-49
2021/03/31 04:05:37;;;;;;;15.50;5.88;;;7.30;99.90;;;;;;5071189;28;20506;-52
2021/03/31 04:08:03;;;;;;;16.65;6.40;;;7.30;99.90;;;;;;5071047;28;20406;-51
2021/03/31 04:10:30;;;;;;;19.25;6.32;;;7.30;99.90;;;;;;5071041;28;20529;-50
2021/03/31 04:12:59;;;;;;;16.95;6.43;;;7.30;99.90;;;;;;5069378;28;20031;-53
2021/03/31 04:15:25;;;;;;;11.50;5.72;;;7.20;99.90;;;;;;5071636;28;20016;-52
2021/03/31 04:17:52;;;;;;;19.05;7.07;;;7.20;99.90;;;;;;5070928;28;20368;-51
2021/03/31 04:20:23;;;;;;;14.45;7.10;;;7.10;99.90;;;;;;5066915;28;20016;-50
2021/03/31 04:22:49;;;;;;;18.15;7.15;;;7.20;99.90;;;;;;5070918;28;20486;-50
2021/03/31 04:25:16;;;;;;;20.83;6.80;;;7.10;99.90;;;;;;5065242;28;20024;-52
2021/03/31 04:27:45;;;;;;;12.10;6.07;;;7.10;99.90;;;;;;5071095;28;20028;-52
2021/03/31 04:30:13;;;;;;;15.25;7.18;;;7.00;99.90;;;;;;5066420;28;20028;-52
2021/03/31 04:32:42;;;;;;;14.20;8.15;;;6.90;99.90;;;;;;5070425;28;20051;-52
2021/03/31 04:35:08;;;;;;;19.00;7.28;;;6.80;99.90;;;;;;5070981;28;20540;-50
2021/03/31 04:37:34;;;;;;;19.35;7.13;;;6.70;99.90;;;;;;5071377;28;20133;-52
2021/03/31 04:39:59;;;;;;;17.27;6.50;;;6.70;99.90;;;;;;5060802;28;20534;-52
2021/03/31 04:42:25;;;;;;;17.27;6.70;;;6.70;99.90;;;;;;5070850;28;20028;-50
2021/03/31 04:44:50;;;;;;;20.30;6.88;;;6.70;99.90;;;;;;5069990;28;20063;-51
2021/03/31 04:47:16;;;;;;;17.48;6.93;;;6.80;99.90;;;;;;5067057;28;20495;-51
2021/03/31 04:49:42;;;;;;;14.55;6.70;;;6.80;99.90;;;;;;5066035;28;20108;-50
2021/03/31 04:52:08;;;;;;;18.73;6.78;;;6.80;99.90;;;;;;5069864;28;20108;-52
2021/03/31 04:54:33;;;;;;;19.30;6.75;;;6.80;99.90;;;;;;5070637;28;20074;-50
2021/03/31 04:56:59;;;;;;;13.20;7.05;;;6.90;99.90;;;;;;5068843;28;20036;-51
2021/03/31 04:59:25;;;;;;;24.95;7.40;;;6.90;99.90;;;;;;5069776;28;20387;-50
2021/03/31 05:01:50;;;;;;;21.70;7.03;;;6.90;99.90;;;;;;5069676;28;20101;-52
2021/03/31 05:04:16;;;;;;;14.02;5.47;;;6.80;99.90;;;;;;5066851;28;20123;-53
2021/03/31 05:06:42;;;;;;;14.70;6.60;;;6.80;99.90;;;;;;5067309;28;20044;-49
2021/03/31 05:09:07;;;;;;;21.98;6.72;;;6.80;99.90;;;;;;5070531;28;20029;-53
2021/03/31 05:11:33;;;;;;;13.98;6.32;;;6.80;99.90;;;;;;5069964;28;20395;-52
2021/03/31 05:13:59;;;;;;;21.27;7.13;;;6.80;99.90;;;;;;5066222;28;20028;-51
2021/03/31 05:16:24;;;;;;;22.75;7.50;;;6.80;99.90;;;;;;5066416;28;20042;-50
2021/03/31 05:18:50;;;;;;;17.60;7.05;;;6.80;99.90;;;;;;5065048;28;20024;-51
2021/03/31 05:21:15;;;;;;;21.38;6.97;;;6.80;99.90;;;;;;5069320;28;20478;-54
2021/03/31 05:23:41;;;;;;;13.57;6.55;;;6.80;99.90;;;;;;5070317;28;20036;-54
2021/03/31 05:26:06;;;;;;;18.90;7.30;;;6.80;99.90;;;;;;5069603;28;20024;-53
2021/03/31 05:28:32;;;;;;;24.20;7.47;;;6.70;99.90;;;;;;5062861;28;20020;-50
2021/03/31 05:30:57;;;;;;;21.13;7.80;;;6.80;99.90;;;;;;5069440;22;20102;-56
2021/03/31 05:33:23;;;;;;;18.42;8.00;;;6.90;99.90;;;;;;5049588;28;20086;-57
2021/03/31 05:35:49;;;;;;;15.55;7.38;;;6.90;99.90;;;;;;5044223;28;20067;-54
2021/03/31 05:38:14;;;;;;;25.83;8.23;;;6.90;99.90;;;;;;5048801;28;20083;-55
2021/03/31 05:40:40;;;;;;;17.88;7.20;;;7.00;99.90;;;;;;5049428;28;20128;-54
2021/03/31 05:43:06;;;;;;;17.08;7.05;;;6.90;99.90;;;;;;5049933;28;20471;-54
2021/03/31 05:45:33;;;;;;;21.40;7.53;;;6.90;99.90;;;;;;5045990;28;20037;-55
2021/03/31 05:47:59;;;;;;;14.90;6.82;;;6.90;99.90;;;;;;5049562;28;20371;-54
2021/03/31 05:50:25;;;;;;;14.15;6.18;;;6.90;99.90;;;;;;5049342;28;20351;-56
2021/03/31 05:52:50;;;;;;;16.70;7.57;;;6.90;99.90;;;;;;5049254;28;20025;-54
2021/03/31 05:55:17;;;;;;;15.43;6.97;;;6.90;99.90;;;;;;5045789;28;20074;-54
2021/03/31 05:57:44;;;;;;;19.25;7.05;;;6.90;99.90;;;;;;5048903;28;20407;-55
2021/03/31 06:00:19;;;;;;;18.70;6.60;;;6.90;99.90;;;;;;5048925;28;20029;-54
2021/03/31 06:02:45;;;;;;;16.55;6.90;;;6.90;99.90;;;;;;5048329;28;20021;-54
2021/03/31 06:05:13;;;;;;;22.50;6.97;;;7.00;99.90;;;;;;5046400;28;20441;-56
2021/03/31 06:07:43;;;;;;;11.52;6.80;;;7.10;99.90;;;;;;5049446;28;20437;-54
2021/03/31 06:10:13;;;;;;;12.38;7.03;;;7.20;99.90;;;;;;5049004;28;20049;-54
2021/03/31 06:12:41;;;;;;;11.55;5.57;;;7.30;99.90;;;;;;5048884;28;20050;-54
2021/03/31 06:15:22;;;;;;;15.68;6.65;;;7.30;99.90;;;;;;5048000;28;20481;-54
2021/03/31 06:17:54;;;;;;;15.30;7.15;;;7.40;99.90;;;;;;5048829;28;20024;-55
2021/03/31 06:20:48;;;;;;;15.60;6.43;;;7.50;99.90;;;;;;5048939;28;20032;-55
2021/03/31 06:23:48;;;;;;;18.65;7.25;;;7.60;99.90;;;;;;5046124;28;20021;-54
2021/03/31 06:26:19;;;;;;;15.10;6.82;;;7.70;99.90;;;;;;5048310;28;20040;-56
2021/03/31 06:29:01;;;;;;;16.42;6.75;;;7.80;99.90;;;;;;5049381;28;20400;-55
2021/03/31 06:31:31;;;;;;;13.68;6.97;;;8.00;99.90;;;;;;5045390;28;20037;-53
2021/03/31 06:34:05;;;;;;;14.77;6.50;;;8.10;99.90;;;;;;5048714;28;20479;-54
2021/03/31 06:36:52;;;;;;;16.40;7.38;;;8.20;99.90;;;;;;5043761;28;20037;-57
2021/03/31 06:39:21;;;;;;;16.95;6.97;;;8.30;99.90;;;;;;5048616;28;20033;-54
2021/03/31 06:41:50;;;;;;;16.13;6.90;;;8.50;99.90;;;;;;5048640;28;20048;-54
2021/03/31 06:44:24;;;;;;;14.68;6.85;;;8.60;99.90;;;;;;5048594;28;20921;-57
2021/03/31 06:47:01;;;;;;;;;;;8.70;99.90;;;;;;5043938;28;20037;-55
2021/03/31 06:49:27;;;;;;;13.20;6.65;;;8.90;99.90;;;;;;5049827;28;20036;-54
2021/03/31 06:52:05;;;;;;;20.10;6.68;;;9.00;99.90;;;;;;5052305;28;20124;-56
2021/03/31 06:54:43;;;;;;;13.27;6.05;;;9.20;99.90;;;;;;5052575;28;20033;-54
2021/03/31 06:57:11;;;;;;;17.90;7.78;;;9.30;99.90;;;;;;5042027;28;20047;-55
2021/03/31 06:59:36;;;;;;;15.60;7.05;;;9.60;99.90;;;;;;5049529;28;20047;-54
2021/03/31 07:02:04;;;;;;;22.85;7.43;;;9.80;99.90;;;;;;5050174;28;20029;-53
2021/03/31 07:04:31;;;;;;;15.57;7.07;;;9.90;99.90;;;;;;5047680;28;20343;-54
2021/03/31 07:07:09;;;;;;;26.85;8.25;;;10.00;99.90;;;;;;5049784;28;20564;-53
2021/03/31 07:09:37;;;;;;;16.60;6.63;;;10.20;99.90;;;;;;5052190;28;20028;-54
2021/03/31 07:12:16;;;;;;;18.30;6.18;;;10.40;99.90;;;;;;5050909;28;20156;-54
2021/03/31 07:14:45;;;;;;;21.90;6.25;;;10.50;99.90;;;;;;5051658;28;20025;-55
2021/03/31 07:17:11;;;;;;;16.52;7.10;;;10.70;99.90;;;;;;5050230;28;20166;-54
2021/03/31 07:19:37;;;;;;;20.92;7.72;;;10.90;99.90;;;;;;5046065;28;20112;-55
2021/03/31 07:22:03;;;;;;;18.98;7.00;;;11.00;99.90;;;;;;5047808;28;20514;-54
2021/03/31 07:24:28;;;;;;;13.85;6.80;;;11.10;99.90;;;;;;5038806;28;20127;-55
2021/03/31 07:26:56;;;;;;;14.45;6.50;;;11.20;99.90;;;;;;5044758;28;20212;-53
2021/03/31 07:29:23;;;;;;;20.17;7.13;;;11.40;99.90;;;;;;5049229;28;20024;-56
2021/03/31 07:31:49;;;;;;;16.00;6.57;;;11.50;99.90;;;;;;5043320;28;20025;-56
2021/03/31 07:34:22;;;;;;;17.65;6.90;;;11.70;99.90;;;;;;5041915;28;20449;-57
2021/03/31 07:36:50;;;;;;;16.23;6.88;;;11.80;99.90;;;;;;5040595;28;20029;-56
2021/03/31 07:39:23;;;;;;;16.63;7.10;;;11.90;99.90;;;;;;5047771;28;20025;-57
2021/03/31 07:41:49;;;;;;;16.50;6.95;;;12.00;99.90;;;;;;5043768;28;20040;-56
2021/03/31 07:44:24;;;;;;;22.15;8.20;;;12.20;99.90;;;;;;5045596;28;20043;-57
2021/03/31 07:46:52;;;;;;;20.02;7.90;;;12.30;99.90;;;;;;5036855;28;20047;-57
2021/03/31 07:49:19;;;;;;;20.05;8.70;;;12.40;99.90;;;;;;5049436;28;20071;-56
2021/03/31 07:51:59;;;;;;;18.67;7.47;;;12.60;99.90;;;;;;5047447;28;20020;-56
2021/03/31 07:54:26;;;;;;;21.55;8.00;;;12.70;99.90;;;;;;5046420;28;20037;-57
2021/03/31 07:56:52;;;;;;;20.13;8.55;;;12.70;99.90;;;;;;5045822;28;20120;-57
2021/03/31 07:59:18;;;;;;;18.58;8.02;;;12.80;99.90;;;;;;5047548;28;20017;-57
2021/03/31 08:01:57;;;;;;;20.55;7.85;;;12.90;99.90;;;;;;5048187;28;20053;-56
2021/03/31 08:04:25;;;;;;;23.45;7.97;;;13.00;99.90;;;;;;5046439;28;20099;-57
2021/03/31 08:06:53;;;;;;;21.13;8.68;;;13.20;99.90;;;;;;5046953;28;20025;-54
2021/03/31 08:09:21;;;;;;;18.35;7.10;;;13.30;99.90;;;;;;5047978;28;20098;-56
2021/03/31 08:11:50;;;;;;;18.92;7.53;;;13.40;99.90;;;;;;5047796;28;20032;-56
2021/03/31 08:14:37;;;;;;;19.33;7.63;;;13.50;99.90;;;;;;5049822;28;20111;-57
2021/03/31 08:17:05;;;;;;;18.50;8.52;;;13.60;99.90;;;;;;5043294;28;20041;-57
2021/03/31 08:19:35;;;;;;;19.25;8.88;;;13.70;99.90;;;;;;5049649;28;20108;-57
2021/03/31 08:22:26;;;;;;;21.33;8.57;;;13.90;99.90;;;;;;5044334;28;20446;-56
2021/03/31 08:24:57;;;;;;;23.42;9.43;;;14.00;99.90;;;;;;5042962;28;20416;-56
2021/03/31 08:27:23;;;;;;;15.60;8.60;;;14.10;99.90;;;;;;5049542;28;20107;-57
2021/03/31 08:29:57;;;;;;;27.35;9.60;;;14.20;99.90;;;;;;5048984;28;20424;-56
2021/03/31 08:32:26;;;;;;;24.13;10.77;;;14.40;99.90;;;;;;5048073;28;20037;-57
2021/03/31 08:34:52;;;;;;;20.42;9.60;;;14.50;99.90;;;;;;5049587;28;20112;-56
2021/03/31 08:37:25;;;;;;;25.30;10.63;;;14.60;99.90;;;;;;5048170;28;20901;-57
2021/03/31 08:39:51;;;;;;;27.38;10.13;;;14.70;99.90;;;;;;5049097;28;20028;-54
2021/03/31 08:42:17;;;;;;;27.85;11.02;;;14.80;99.90;;;;;;5050878;28;20124;-54
2021/03/31 08:44:47;;;;;;;22.80;11.02;;;15.00;99.90;;;;;;5048916;28;20021;-55
2021/03/31 08:47:20;;;;;;;20.88;9.85;;;15.10;99.90;;;;;;5049205;28;20029;-55
2021/03/31 08:49:48;;;;;;;25.88;9.98;;;15.20;99.90;;;;;;5048797;28;20056;-55
2021/03/31 08:52:17;;;;;;;20.25;9.73;;;15.40;99.90;;;;;;5049172;28;20019;-54
2021/03/31 08:54:49;;;;;;;23.50;10.55;;;15.60;99.90;;;;;;5050092;28;20044;-56
2021/03/31 08:57:27;;;;;;;30.20;9.73;;;15.70;99.90;;;;;;5046876;28;20505;-55
2021/03/31 08:59:56;;;;;;;28.40;10.38;;;15.90;99.90;;;;;;5048553;28;20041;-55
2021/03/31 09:02:24;;;;;;;18.60;9.38;;;16.00;99.90;;;;;;5048234;28;20483;-54
2021/03/31 09:04:50;;;;;;;22.48;9.98;;;16.10;99.90;;;;;;5046024;28;20035;-55
2021/03/31 09:07:17;;;;;;;22.58;10.73;;;16.30;99.90;;;;;;5045098;28;20123;-55
2021/03/31 09:09:44;;;;;;;23.95;10.73;;;16.50;99.90;;;;;;5060668;28;20023;-55
2021/03/31 09:12:13;;;;;;;25.52;10.45;;;16.60;99.90;;;;;;5046068;28;20024;-56
2021/03/31 09:14:58;;;;;;;25.77;10.88;;;16.80;99.90;;;;;;5044096;28;20552;-55
2021/03/31 09:17:32;;;;;;;23.45;9.63;;;16.90;99.90;;;;;;5040985;28;20033;-55
2021/03/31 09:20:06;;;;;;;25.08;9.93;;;17.10;99.90;;;;;;5039010;28;20398;-55
2021/03/31 09:22:34;;;;;;;22.13;9.88;;;17.30;99.90;;;;;;5045504;28;20513;-54
2021/03/31 09:25:08;;;;;;;24.52;10.00;;;17.40;99.90;;;;;;5045023;28;20037;-56
2021/03/31 09:27:35;;;;;;;27.65;10.05;;;17.70;99.90;;;;;;5042812;28;20020;-56
2021/03/31 09:30:11;;;;;;;26.13;11.20;;;17.90;99.90;;;;;;5044968;28;20112;-54
2021/03/31 09:32:56;;;;;;;22.85;10.05;;;18.10;99.90;;;;;;5038982;28;20100;-56
2021/03/31 09:35:21;;;;;;;19.05;9.25;;;18.30;99.90;;;;;;5039033;28;20119;-57
2021/03/31 09:37:49;;;;;;;23.42;10.48;;;18.50;99.90;;;;;;5044983;28;20112;-57
2021/03/31 09:40:21;;;;;;;27.13;9.65;;;18.60;99.90;;;;;;5040601;28;20020;-56
2021/03/31 09:42:52;;;;;;;26.40;10.23;;;18.70;99.90;;;;;;5042819;28;20037;-55
2021/03/31 09:45:23;;;;;;;31.10;10.07;;;18.90;99.90;;;;;;5040495;28;20044;-57
2021/03/31 09:47:49;;;;;;;18.15;9.00;;;19.10;99.90;;;;;;5042794;28;20067;-55
2021/03/31 09:50:15;;;;;;;21.73;9.73;;;19.20;99.90;;;;;;5042021;28;20036;-55
2021/03/31 09:52:41;;;;;;;19.23;9.65;;;19.40;99.90;;;;;;5042955;28;20493;-57
2021/03/31 09:55:12;;;;;;;26.00;10.18;;;19.60;99.90;;;;;;5038486;28;20030;-54
2021/03/31 09:57:40;;;;;;;23.70;10.65;;;19.80;99.90;;;;;;5038020;28;20030;-56
2021/03/31 10:00:14;;;;;;;24.35;10.23;;;20.00;99.90;;;;;;5042435;28;20083;-57
2021/03/31 10:02:42;;;;;;;17.27;8.60;;;20.20;99.90;;;;;;5040102;28;20029;-57
2021/03/31 10:05:14;;;;;;;26.45;11.27;;;20.40;99.90;;;;;;5044248;28;20056;-56
2021/03/31 10:07:40;;;;;;;19.83;9.75;;;20.50;99.90;;;;;;5039637;28;20117;-56
2021/03/31 10:10:08;;;;;;;25.17;11.80;;;20.60;99.90;;;;;;5042927;28;20037;-56
2021/03/31 10:12:35;;;;;;;21.10;10.43;;;20.70;99.90;;;;;;5045014;28;20111;-55
2021/03/31 10:15:04;;;;;;;21.23;10.68;;;20.90;99.90;;;;;;5042277;28;20017;-54
2021/03/31 10:17:32;;;;;;;19.52;10.80;;;21.20;99.90;;;;;;5037616;28;20645;-55
2021/03/31 10:20:11;;;;;;;19.75;10.00;;;21.40;99.90;;;;;;5037877;28;20113;-54
2021/03/31 10:22:37;;;;;;;27.65;10.07;;;21.60;99.90;;;;;;5034866;28;20026;-54
2021/03/31 10:25:06;;;;;;;22.05;10.45;;;21.90;99.90;;;;;;5044877;28;20033;-56
2021/03/31 10:27:43;;;;;;;22.17;11.07;;;22.20;99.90;;;;;;5049593;28;20029;-54
2021/03/31 10:30:21;;;;;;;23.38;9.15;;;22.30;98.70;;;;;;5044195;28;20025;-56
2021/03/31 10:32:47;;;;;;;20.70;9.43;;;22.50;99.50;;;;;;5046773;28;20044;-56
2021/03/31 10:35:13;;;;;;;25.73;10.50;;;22.60;97.10;;;;;;5048411;28;20032;-56
2021/03/31 10:37:50;;;;;;;19.27;9.75;;;22.70;95.10;;;;;;5044506;28;20421;-54
2021/03/31 10:48:59;;;;;;;;;;;23.10;93.70;;;;;;5051328;28;20063;-57
2021/03/31 10:52:12;;;;;;;20.58;9.48;;;23.20;92.30;;;;;;5041533;28;19905;-55
2021/03/31 10:54:16;;;;;;;22.90;10.77;;;23.40;94.00;;;;;;5037290;28;20063;-56
2021/03/31 10:56:54;;;;;;;19.83;9.45;;;23.70;93.00;;;;;;5043280;28;20025;-56
2021/03/31 10:59:34;;;;;;;21.45;9.15;;;23.90;92.50;;;;;;5043192;28;20072;-54
2021/03/31 11:02:00;;;;;;;17.35;8.30;;;24.00;88.20;;;;;;5045943;28;20114;-55
2021/03/31 11:04:26;;;;;;;13.05;7.28;;;24.10;89.20;;;;;;5044666;28;20094;-53
2021/03/31 11:06:51;;;;;;;14.75;7.63;;;24.30;90.20;;;;;;5047496;28;20941;-56
2021/03/31 11:09:18;;;;;;;14.65;7.40;;;24.30;83.70;;;;;;5046878;28;20394;-55
2021/03/31 11:11:43;;;;;;;16.88;7.47;;;24.20;81.20;;;;;;5049263;28;20398;-55
2021/03/31 11:14:09;;;;;;;12.00;6.15;;;24.20;85.90;;;;;;5042950;28;20025;-54
2021/03/31 11:16:35;;;;;;;14.55;6.25;;;24.50;84.10;;;;;;5040967;28;20033;-56
2021/03/31 11:19:30;;;;;;;8.95;4.47;;;24.70;86.70;;;;;;5043074;28;20022;-56
2021/03/31 11:27:24;;;;;;;11.10;5.93;;;25.10;74.90;;;;;;5045224;28;20039;-54
2021/03/31 11:32:38;;;;;;;10.55;5.60;;;25.50;76.50;;;;;;5025637;28;20053;-56
2021/03/31 11:35:04;;;;;;;20.60;5.18;;;25.70;72.40;;;;;;5022636;28;20472;-56
2021/03/31 11:37:30;;;;;;;7.80;4.80;;;25.60;70.60;;;;;;5028180;28;20269;-53
2021/03/31 11:39:56;;;;;;;9.43;4.88;;;25.70;70.80;;;;;;5027000;28;20052;-51
2021/03/31 11:42:22;;;;;;;10.40;4.15;;;25.60;68.50;;;;;;5006858;28;20033;-55
2021/03/31 11:44:47;;;;;;;11.00;4.82;;;25.50;71.90;;;;;;5012308;28;20153;-56
2021/03/31 11:47:14;;;;;;;12.38;4.97;;;25.80;71.80;;;;;;5005876;28;20117;-53
2021/03/31 11:49:40;;;;;;;11.77;4.35;;;26.00;70.70;;;;;;5008140;28;20426;-54
2021/03/31 11:52:06;;;;;;;9.52;4.05;;;26.10;65.00;;;;;;5003986;28;20088;-51
2021/03/31 11:54:31;;;;;;;16.17;4.47;;;26.00;64.60;;;;;;5007334;28;20030;-52
2021/03/31 11:56:57;;;;;;;10.10;3.58;;;26.00;64.10;;;;;;5004534;28;20376;-52
2021/03/31 11:59:23;;;;;;;7.30;3.28;;;26.00;69.90;;;;;;5005732;28;20074;-57
2021/03/31 12:01:48;;;;;;;7.15;2.90;;;26.20;61.60;;;;;;5007545;28;20025;-55
2021/03/31 12:04:15;;;;;;;6.03;2.83;;;26.30;59.10;;;;;;5009786;28;20367;-50
2021/03/31 12:06:41;;;;;;;12.07;2.92;;;26.30;60.10;;;;;;5007474;28;20045;-56
2021/03/31 12:09:08;;;;;;;9.43;3.17;;;26.30;60.80;;;;;;5000747;28;20034;-55
2021/03/31 12:11:34;;;;;;;7.38;3.38;;;26.30;58.70;;;;;;5002984;28;20034;-50
2021/03/31 12:13:59;;;;;;;11.25;2.95;;;26.60;57.80;;;;;;5006952;28;20037;-53
2021/03/31 12:16:25;;;;;;;29.20;4.18;;;26.60;57.70;;;;;;5004244;28;20040;-54
2021/03/31 12:18:51;;;;;;;9.05;3.33;;;26.50;62.30;;;;;;5001480;28;20029;-54
2021/03/31 12:21:17;;;;;;;8.18;2.90;;;26.60;63.10;;;;;;5006371;28;20029;-53
2021/03/31 12:23:42;;;;;;;5.97;2.97;;;26.90;57.10;;;;;;5010980;28;20034;-54
2021/03/31 12:26:08;;;;;;;4.72;2.45;;;27.00;58.70;;;;;;5006317;28;20114;-54
2021/03/31 12:28:36;;;;;;;9.65;2.55;;;27.10;56.40;;;;;;5005755;28;20034;-51
2021/03/31 12:31:06;;;;;;;4.50;2.13;;;27.10;53.60;;;;;;5010510;28;20029;-54
2021/03/31 12:33:32;;;;;;;9.48;2.90;;;26.90;57.70;;;;;;5024202;28;20030;-55
2021/03/31 12:35:57;;;;;;;6.65;3.47;;;27.10;57.00;;;;;;5026284;28;20037;-54
2021/03/31 12:38:23;;;;;;;7.75;3.33;;;27.10;56.50;;;;;;5023462;28;20029;-54
2021/03/31 12:40:49;;;;;;;3.67;2.38;;;27.40;53.40;;;;;;5018530;28;20032;-57
2021/03/31 12:43:14;;;;;;;8.20;3.45;;;27.30;52.40;;;;;;5025472;28;20423;-54
2021/03/31 12:45:40;;;;;;;8.75;3.30;;;27.10;55.80;;;;;;5022790;28;20037;-57
2021/03/31 12:48:06;;;;;;;6.45;3.72;;;27.20;54.00;;;;;;5025554;28;20034;-55
2021/03/31 12:50:33;;;;;;;12.60;3.63;;;27.20;53.00;;;;;;5023228;28;20112;-54
2021/03/31 12:53:03;;;;;;;8.88;2.78;;;27.30;52.10;;;;;;5022455;28;20065;-53
2021/03/31 12:55:38;;;;;;;12.00;3.13;;;27.40;52.10;;;;;;5020030;28;20037;-52
2021/03/31 12:58:08;;;;;;;5.13;2.63;;;27.40;55.10;;;;;;5021494;28;20029;-55
2021/03/31 13:00:34;;;;;;;8.38;3.55;;;27.30;54.30;;;;;;5020151;28;20045;-57
2021/03/31 13:02:59;;;;;;;7.50;3.15;;;27.40;55.10;;;;;;5023258;28;20032;-52
2021/03/31 13:05:25;;;;;;;7.85;3.78;;;27.60;52.90;;;;;;5022105;28;20040;-52
2021/03/31 13:07:51;;;;;;;7.88;2.75;;;27.60;50.60;;;;;;5024811;28;20108;-51
2021/03/31 13:10:16;;;;;;;3.97;2.45;;;27.40;51.50;;;;;;5027131;28;20396;-55